New Meadows, Idaho
Current Conditions -  °F | °C
As of 11:51 AM on Wednesday 26 Nov 2014 (Local Time) from KMYL Reporting Station
Clear Clear  
Wind Chill: 39°   Ceiling: Unl
Heat Index: 39°   Visibility: 10mi
Dew Point: 38°   Wind: 0mph
Humidity: 96%   Direction: NA
Pressure: 30.3"   Gusts: NA
Location:  44.97°N, 116.28°W
Report Text: KMYL 261851Z AUTO 00000KT 10SM CLR 04/03 A3030 RMK AO2 SLP277 T00390033
Loading
Personal Weather Stations






























Interactive Weather Map New forecast layout! Learn more

10-Day Weather Forecast

Advertisements
Track Severe Weather on mobile